Airfield :
LOGIN :

Register | Disclaimer

   EN    FR    IT 

 










Legend :    VFR   Marginal VFR   IFR   Intensive IFR   Very Intensive IFR
Visi :
Ceiling :
>= 8 km
>= 3000ft
5 to 8 km
1000 to 3000 ft
1500m to 5 km
500 to 1000 ft
800 to 1500m
200 to 500 ft
< 800m
< 200 ft
Symbols :   Thunderstorms  Fog  Heavy snow  Heavy precipitations  Wind > 20 kt
SIGMETs :     Misc.  Thunderstorms  Icing  Turbulence  Mountain Waves  Volcanic Ashes






- Airport Elevation : 308 ft


ESIA - Karlsborg Air Base

CURRENT METAR :
  • 280750Z AUTO 30008KT 270V330 9999 OVC047/// 10/07 Q1001

EXPIRED METARs :
  • 280720Z AUTO 31009KT 280V350 9999 OVC045/// 10/07 Q1001
  • 280650Z AUTO 31009KT 280V350 9999 BKN043/// OVC050/// 10/07 Q1001
  • 280620Z AUTO 31009KT 280V340 9999 OVC044/// 09/07 Q1001
  • 280550Z AUTO 31008KT 280V350 9999 OVC035/// 09/07 Q1000
  • 280520Z AUTO 33009KT 290V360 9999 -RA FEW011/// OVC029/// 09/07 Q1000

Expired Forecast.



MET'MAP, your aeronautical weather chart ! - Copyright ORBIFLY December 2007 - Disclaimer

ORBIFLY MET'MAP TEAM :

Programming & Development : Alexandra Zaïnal
Original concept : Baudouin d'Aumeries
Technical & hardware support : Manuel Goepfert
Assistance : Marc-Olivier Méhu

Contact : metmap@orbifly.com




SOURCES & CREDITS :

   NOAA